sensor_id;sensor_type;location;lat;lon;timestamp;pressure;altitude;pressure_sealevel;temperature;humidity
77639;BME280;66802;52.574;14.398;2023-03-01T00:01:29;103225.78;;;-2.57;71.08
77639;BME280;66802;52.574;14.398;2023-03-01T00:03:57;103213.50;;;-2.64;71.97
77639;BME280;66802;52.574;14.398;2023-03-01T00:06:25;103210.84;;;-2.63;71.65
77639;BME280;66802;52.574;14.398;2023-03-01T00:08:51;103214.38;;;-2.68;70.99
77639;BME280;66802;52.574;14.398;2023-03-01T00:11:22;103213.50;;;-2.67;71.61
77639;BME280;66802;52.574;14.398;2023-03-01T00:13:50;103208.22;;;-2.69;70.94
77639;BME280;66802;52.574;14.398;2023-03-01T00:16:23;103206.50;;;-2.74;71.28
77639;BME280;66802;52.574;14.398;2023-03-01T00:18:50;103210.03;;;-2.72;70.76
77639;BME280;66802;52.574;14.398;2023-03-01T00:21:17;103213.56;;;-2.78;71.25
77639;BME280;66802;52.574;14.398;2023-03-01T00:23:43;103221.50;;;-2.78;71.66
77639;BME280;66802;52.574;14.398;2023-03-01T00:26:12;103217.97;;;-2.80;72.34
77639;BME280;66802;52.574;14.398;2023-03-01T00:28:39;103215.38;;;-2.83;72.22
77639;BME280;66802;52.574;14.398;2023-03-01T00:31:17;103218.91;;;-2.90;72.78
77639;BME280;66802;52.574;14.398;2023-03-01T00:33:43;103208.34;;;-2.91;72.73
77639;BME280;66802;52.574;14.398;2023-03-01T00:36:12;103220.72;;;-2.92;72.01
77639;BME280;66802;52.574;14.398;2023-03-01T00:38:43;103207.50;;;-2.92;72.60
77639;BME280;66802;52.574;14.398;2023-03-01T00:41:15;103212.78;;;-2.97;72.99
77639;BME280;66802;52.574;14.398;2023-03-01T00:43:41;103211.91;;;-2.97;72.48
77639;BME280;66802;52.574;14.398;2023-03-01T00:46:09;103212.78;;;-2.98;72.09
77639;BME280;66802;52.574;14.398;2023-03-01T00:48:36;103212.78;;;-2.98;71.74
77639;BME280;66802;52.574;14.398;2023-03-01T00:53:38;103199.56;;;-2.97;71.58
77639;BME280;66802;52.574;14.398;2023-03-01T00:56:07;103199.56;;;-2.97;72.03
77639;BME280;66802;52.574;14.398;2023-03-01T00:58:34;103199.63;;;-3.04;71.59
77639;BME280;66802;52.574;14.398;2023-03-01T05:01:49;103091.81;;;-4.64;72.59
77639;BME280;66802;52.574;14.398;2023-03-01T05:04:14;103072.50;;;-4.66;72.40
77639;BME280;66802;52.574;14.398;2023-03-01T05:06:41;103084.81;;;-4.66;72.06
77639;BME280;66802;52.574;14.398;2023-03-01T05:09:07;103082.16;;;-4.68;71.65
77639;BME280;66802;52.574;14.398;2023-03-01T05:11:33;103072.50;;;-4.72;72.15
77639;BME280;66802;52.574;14.398;2023-03-01T05:14:06;103070.75;;;-4.71;71.56
77639;BME280;66802;52.574;14.398;2023-03-01T05:16:32;103074.25;;;-4.75;71.73
77639;BME280;66802;52.574;14.398;2023-03-01T05:18:59;103074.25;;;-4.80;71.69
77639;BME280;66802;52.574;14.398;2023-03-01T05:21:25;103076.91;;;-4.80;71.77
77639;BME280;66802;52.574;14.398;2023-03-01T05:23:51;103076.00;;;-4.81;71.74
77639;BME280;66802;52.574;14.398;2023-03-01T05:26:19;103079.53;;;-4.82;71.86
77639;BME280;66802;52.574;14.398;2023-03-01T05:28:47;103076.00;;;-4.90;72.70
77639;BME280;66802;52.574;14.398;2023-03-01T05:31:12;103076.88;;;-4.91;73.30
77639;BME280;66802;52.574;14.398;2023-03-01T05:33:40;103076.88;;;-4.86;73.22
77639;BME280;66802;52.574;14.398;2023-03-01T05:36:07;103074.25;;;-4.86;72.27
77639;BME280;66802;52.574;14.398;2023-03-01T05:38:35;103072.50;;;-4.93;73.19
77639;BME280;66802;52.574;14.398;2023-03-01T05:41:01;103070.72;;;-5.11;73.15
77639;BME280;66802;52.574;14.398;2023-03-01T05:43:31;103069.84;;;-5.21;73.93
77639;BME280;66802;52.574;14.398;2023-03-01T05:45:59;103065.44;;;-5.17;73.90
77639;BME280;66802;52.574;14.398;2023-03-01T05:48:25;103068.94;;;-5.23;75.02
77639;BME280;66802;52.574;14.398;2023-03-01T05:50:51;103075.06;;;-5.18;74.70
77639;BME280;66802;52.574;14.398;2023-03-01T05:53:19;103080.34;;;-5.15;74.07
77639;BME280;66802;52.574;14.398;2023-03-01T05:55:48;103074.22;;;-5.12;73.77
77639;BME280;66802;52.574;14.398;2023-03-01T05:58:17;103090.00;;;-5.07;74.12
77639;BME280;66802;52.574;14.398;2023-03-01T06:00:44;103096.19;;;-5.10;73.46
77639;BME280;66802;52.574;14.398;2023-03-01T06:03:13;103097.94;;;-5.10;73.77
77639;BME280;66802;52.574;14.398;2023-03-01T06:05:39;103090.03;;;-5.09;73.99
77639;BME280;66802;52.574;14.398;2023-03-01T06:08:05;103088.28;;;-5.08;73.82
77639;BME280;66802;52.574;14.398;2023-03-01T06:10:32;103095.31;;;-5.09;73.38
77639;BME280;66802;52.574;14.398;2023-03-01T06:12:58;103111.09;;;-5.09;74.21
77639;BME280;66802;52.574;14.398;2023-03-01T06:15:25;103111.06;;;-5.13;74.02
77639;BME280;66802;52.574;14.398;2023-03-01T06:17:50;103112.84;;;-5.11;73.56
77639;BME280;66802;52.574;14.398;2023-03-01T06:20:19;103115.44;;;-5.19;74.03
77639;BME280;66802;52.574;14.398;2023-03-01T06:22:46;103113.66;;;-5.26;73.97
77639;BME280;66802;52.574;14.398;2023-03-01T06:25:15;103109.28;;;-5.28;74.33
77639;BME280;66802;52.574;14.398;2023-03-01T06:27:42;103110.13;;;-5.35;74.84
77639;BME280;66802;52.574;14.398;2023-03-01T06:30:09;103108.41;;;-5.33;75.38
77639;BME280;66802;52.574;14.398;2023-03-01T06:32:37;103100.47;;;-5.36;76.01
77639;BME280;66802;52.574;14.398;2023-03-01T06:35:04;103099.63;;;-5.34;75.55
77639;BME280;66802;52.574;14.398;2023-03-01T06:37:30;103116.31;;;-5.30;75.90
77639;BME280;66802;52.574;14.398;2023-03-01T06:39:55;103114.59;;;-5.21;75.83
77639;BME280;66802;52.574;14.398;2023-03-01T06:42:21;103118.97;;;-5.13;76.32
77639;BME280;66802;52.574;14.398;2023-03-01T06:44:46;103114.59;;;-5.07;76.20
77639;BME280;66802;52.574;14.398;2023-03-01T06:47:12;103106.72;;;-5.02;75.97
77639;BME280;66802;52.574;14.398;2023-03-01T06:49:38;103104.97;;;-4.94;76.05
77639;BME280;66802;52.574;14.398;2023-03-01T06:52:04;103112.03;;;-4.87;75.53
77639;BME280;66802;52.574;14.398;2023-03-01T06:54:29;103110.25;;;-4.84;75.38
77639;BME280;66802;52.574;14.398;2023-03-01T06:56:55;103110.25;;;-4.79;76.03
77639;BME280;66802;52.574;14.398;2023-03-01T06:59:21;103110.28;;;-4.76;75.97
77639;BME280;66802;52.574;14.398;2023-03-01T07:01:46;103106.75;;;-4.72;76.65
77639;BME280;66802;52.574;14.398;2023-03-01T07:04:13;103112.91;;;-4.67;76.13
77639;BME280;66802;52.574;14.398;2023-03-01T07:06:39;103117.31;;;-4.66;76.79
77639;BME280;66802;52.574;14.398;2023-03-01T07:09:04;103122.56;;;-4.61;76.51
77639;BME280;66802;52.574;14.398;2023-03-01T07:11:30;103125.22;;;-4.55;77.65
77639;BME280;66802;52.574;14.398;2023-03-01T07:13:55;103122.56;;;-4.35;78.01
77639;BME280;66802;52.574;14.398;2023-03-01T07:16:21;103120.78;;;-4.39;77.70
77639;BME280;66802;52.574;14.398;2023-03-01T07:18:47;103110.28;;;-4.33;78.64
77639;BME280;66802;52.574;14.398;2023-03-01T07:21:14;103107.63;;;-4.35;79.96
77639;BME280;66802;52.574;14.398;2023-03-01T07:23:40;103099.69;;;-4.30;79.33
77639;BME280;66802;52.574;14.398;2023-03-01T07:26:07;103106.72;;;-4.19;78.36
77639;BME280;66802;52.574;14.398;2023-03-01T07:28:32;103106.69;;;-4.08;77.87
77639;BME280;66802;52.574;14.398;2023-03-01T07:31:03;103105.78;;;-3.99;77.95
77639;BME280;66802;52.574;14.398;2023-03-01T07:33:29;103102.25;;;-3.86;78.32
77639;BME280;66802;52.574;14.398;2023-03-01T07:35:59;103099.53;;;-3.62;77.96
77639;BME280;66802;52.574;14.398;2023-03-01T07:38:25;103099.38;;;-3.32;77.44
77639;BME280;66802;52.574;14.398;2023-03-01T07:40:51;103099.31;;;-3.18;77.12
77639;BME280;66802;52.574;14.398;2023-03-01T07:43:16;103103.72;;;-3.23;77.63
77639;BME280;66802;52.574;14.398;2023-03-01T07:45:42;103098.44;;;-3.20;78.30
77639;BME280;66802;52.574;14.398;2023-03-01T07:48:07;103094.03;;;-3.15;78.83
77639;BME280;66802;52.574;14.398;2023-03-01T07:50:33;103085.09;;;-3.00;78.51
77639;BME280;66802;52.574;14.398;2023-03-01T07:52:59;103098.16;;;-2.80;78.91
77639;BME280;66802;52.574;14.398;2023-03-01T07:55:24;103091.81;;;-2.58;78.16
77639;BME280;66802;52.574;14.398;2023-03-01T07:57:50;103084.59;;;-2.38;78.15
77639;BME280;66802;52.574;14.398;2023-03-01T08:00:16;103083.59;;;-2.26;77.79
77639;BME280;66802;52.574;14.398;2023-03-01T08:02:42;103081.78;;;-2.19;77.23
77639;BME280;66802;52.574;14.398;2023-03-01T08:05:08;103080.72;;;-2.03;77.37
77639;BME280;66802;52.574;14.398;2023-03-01T08:07:35;103085.91;;;-1.93;77.56
77639;BME280;66802;52.574;14.398;2023-03-01T08:10:00;103084.97;;;-1.86;77.78
77639;BME280;66802;52.574;14.398;2023-03-01T08:12:26;103080.31;;;-1.67;77.99
77639;BME280;66802;52.574;14.398;2023-03-01T08:14:53;103082.56;;;-1.35;76.56
77639;BME280;66802;52.574;14.398;2023-03-01T08:17:19;103079.75;;;-1.24;76.43
77639;BME280;66802;52.574;14.398;2023-03-01T08:19:45;103072.50;;;-1.10;76.17
77639;BME280;66802;52.574;14.398;2023-03-01T08:22:11;103075.13;;;-1.10;76.84
77639;BME280;66802;52.574;14.398;2023-03-01T08:24:37;103076.78;;;-1.03;77.16
77639;BME280;66802;52.574;14.398;2023-03-01T08:27:02;103083.56;;;-0.84;77.21
77639;BME280;66802;52.574;14.398;2023-03-01T08:29:30;103080.59;;;-0.64;77.25
77639;BME280;66802;52.574;14.398;2023-03-01T08:31:56;103065.19;;;-0.42;76.50
77639;BME280;66802;52.574;14.398;2023-03-01T08:34:22;103062.25;;;-0.27;76.31
77639;BME280;66802;52.574;14.398;2023-03-01T08:36:48;103057.59;;;-0.14;76.15
77639;BME280;66802;52.574;14.398;2023-03-01T08:39:17;103060.91;;;-0.02;75.56
77639;BME280;66802;52.574;14.398;2023-03-01T08:41:45;103062.38;;;0.13;74.51
77639;BME280;66802;52.574;14.398;2023-03-01T08:44:12;103056.59;;;0.36;72.94
77639;BME280;66802;52.574;14.398;2023-03-01T08:46:40;103063.25;;;0.55;72.70
77639;BME280;66802;52.574;14.398;2023-03-01T08:49:08;103061.16;;;0.71;72.54
77639;BME280;66802;52.574;14.398;2023-03-01T08:51:34;103059.13;;;0.82;72.60
77639;BME280;66802;52.574;14.398;2023-03-01T08:54:07;103050.91;;;0.93;71.96
77639;BME280;66802;52.574;14.398;2023-03-01T08:56:33;103068.06;;;1.17;70.97
77639;BME280;66802;52.574;14.398;2023-03-01T08:58:59;103061.59;;;1.28;70.93
77639;BME280;66802;52.574;14.398;2023-03-01T09:01:25;103060.91;;;1.54;69.89
77639;BME280;66802;52.574;14.398;2023-03-01T09:03:51;103053.22;;;1.76;69.64
77639;BME280;66802;52.574;14.398;2023-03-01T09:06:16;103048.50;;;1.87;69.54
77639;BME280;66802;52.574;14.398;2023-03-01T09:08:45;103057.22;;;1.94;68.50
77639;BME280;66802;52.574;14.398;2023-03-01T09:11:15;103053.16;;;2.11;68.69
77639;BME280;66802;52.574;14.398;2023-03-01T09:13:42;103057.34;;;2.20;68.56
77639;BME280;66802;52.574;14.398;2023-03-01T09:16:10;103060.53;;;2.33;67.77
77639;BME280;66802;52.574;14.398;2023-03-01T09:18:36;103059.97;;;2.51;66.55
77639;BME280;66802;52.574;14.398;2023-03-01T09:21:10;103054.44;;;2.59;66.75
77639;BME280;66802;52.574;14.398;2023-03-01T09:23:38;103061.88;;;2.77;66.71
77639;BME280;66802;52.574;14.398;2023-03-01T09:26:09;103059.44;;;2.97;65.87
77639;BME280;66802;52.574;14.398;2023-03-01T09:28:36;103054.69;;;3.07;65.65
77639;BME280;66802;52.574;14.398;2023-03-01T09:31:03;103055.22;;;3.18;65.41
77639;BME280;66802;52.574;14.398;2023-03-01T09:33:30;103051.31;;;3.28;62.95
77639;BME280;66802;52.574;14.398;2023-03-01T09:36:01;103056.34;;;3.37;64.34
77639;BME280;66802;52.574;14.398;2023-03-01T09:38:28;103056.91;;;3.47;62.56
77639;BME280;66802;52.574;14.398;2023-03-01T09:40:54;103052.25;;;3.53;62.50
77639;BME280;66802;52.574;14.398;2023-03-01T09:46:05;103050.84;;;3.68;60.58
77639;BME280;66802;52.574;14.398;2023-03-01T09:48:44;103041.38;;;3.84;61.24
77639;BME280;66802;52.574;14.398;2023-03-01T09:51:34;103045.47;;;3.94;58.54
77639;BME280;66802;52.574;14.398;2023-03-01T09:54:05;103040.94;;;3.96;59.69
77639;BME280;66802;52.574;14.398;2023-03-01T09:56:45;103035.09;;;4.10;57.38
77639;BME280;66802;52.574;14.398;2023-03-01T10:02:56;103038.53;;;4.37;58.26
77639;BME280;66802;52.574;14.398;2023-03-01T10:08:30;103034.94;;;4.61;55.84
77639;BME280;66802;52.574;14.398;2023-03-01T10:11:01;103037.53;;;4.63;56.20
77639;BME280;66802;52.574;14.398;2023-03-01T10:13:47;103037.06;;;4.75;56.16
77639;BME280;66802;52.574;14.398;2023-03-01T10:19:23;103033.38;;;4.99;56.21
77639;BME280;66802;52.574;14.398;2023-03-01T10:21:50;103028.03;;;5.21;55.74
77639;BME280;66802;52.574;14.398;2023-03-01T10:24:18;103021.34;;;5.31;56.12
77639;BME280;66802;52.574;14.398;2023-03-01T10:26:47;103028.16;;;5.40;54.52
77639;BME280;66802;52.574;14.398;2023-03-01T10:29:15;103018.13;;;5.23;54.76
77639;BME280;66802;52.574;14.398;2023-03-01T10:31:49;103013.03;;;5.17;53.29
77639;BME280;66802;52.574;14.398;2023-03-01T10:34:22;103020.88;;;5.22;54.29
77639;BME280;66802;52.574;14.398;2023-03-01T10:36:50;103014.19;;;5.32;53.47
77639;BME280;66802;52.574;14.398;2023-03-01T10:39:23;103008.53;;;5.39;55.13
77639;BME280;66802;52.574;14.398;2023-03-01T10:42:02;103009.13;;;5.46;54.31
77639;BME280;66802;52.574;14.398;2023-03-01T10:47:08;103014.03;;;5.57;52.16
77639;BME280;66802;52.574;14.398;2023-03-01T10:49:37;103003.38;;;5.55;52.13
77639;BME280;66802;52.574;14.398;2023-03-01T10:52:18;103011.56;;;5.72;52.18
77639;BME280;66802;52.574;14.398;2023-03-01T10:54:54;103001.44;;;5.79;52.21
77639;BME280;66802;52.574;14.398;2023-03-01T10:57:33;102995.56;;;5.91;51.95
77639;BME280;66802;52.574;14.398;2023-03-01T11:00:22;102997.88;;;5.99;51.64
77639;BME280;66802;52.574;14.398;2023-03-01T11:03:12;103005.06;;;5.98;50.21
77639;BME280;66802;52.574;14.398;2023-03-01T11:05:52;102997.91;;;6.17;49.55
77639;BME280;66802;52.574;14.398;2023-03-01T11:08:33;102989.22;;;6.12;49.73
77639;BME280;66802;52.574;14.398;2023-03-01T11:13:31;102986.81;;;6.06;49.39
77639;BME280;66802;52.574;14.398;2023-03-01T11:16:06;102989.59;;;6.05;50.25
77639;BME280;66802;52.574;14.398;2023-03-01T11:18:33;102999.34;;;6.06;50.01
77639;BME280;66802;52.574;14.398;2023-03-01T11:21:01;102999.34;;;6.06;50.66
77639;BME280;66802;52.574;14.398;2023-03-01T11:23:30;102980.38;;;6.29;49.84
77639;BME280;66802;52.574;14.398;2023-03-01T11:26:00;102982.44;;;6.24;50.04
77639;BME280;66802;52.574;14.398;2023-03-01T11:28:29;102980.25;;;6.32;48.73
77639;BME280;66802;52.574;14.398;2023-03-01T11:33:43;102980.53;;;6.45;47.81
77639;BME280;66802;52.574;14.398;2023-03-01T11:36:31;102976.50;;;6.36;48.22
77639;BME280;66802;52.574;14.398;2023-03-01T11:39:10;102964.44;;;6.45;47.54
77639;BME280;66802;52.574;14.398;2023-03-01T11:41:41;102968.66;;;6.69;47.62
77639;BME280;66802;52.574;14.398;2023-03-01T11:44:19;102960.00;;;6.63;45.85
77639;BME280;66802;52.574;14.398;2023-03-01T12:01:12;102950.03;;;6.47;48.05
77639;BME280;66802;52.574;14.398;2023-03-01T12:20:32;102930.34;;;6.66;39.81
77639;BME280;66802;52.574;14.398;2023-03-01T12:26:08;102933.31;;;6.78;40.95
77639;BME280;66802;52.574;14.398;2023-03-01T12:42:02;102913.56;;;6.96;42.36
77639;BME280;66802;52.574;14.398;2023-03-01T12:50:40;102902.56;;;6.84;42.13
77639;BME280;66802;52.574;14.398;2023-03-01T12:53:28;102891.84;;;6.84;43.56
77639;BME280;66802;52.574;14.398;2023-03-01T12:56:05;102893.59;;;6.85;45.19
77639;BME280;66802;52.574;14.398;2023-03-01T13:07:19;102886.56;;;7.00;39.85
77639;BME280;66802;52.574;14.398;2023-03-01T13:09:54;102874.03;;;7.00;40.92
77639;BME280;66802;52.574;14.398;2023-03-01T13:15:25;102873.06;;;6.84;41.57
77639;BME280;66802;52.574;14.398;2023-03-01T13:26:07;102863.97;;;6.86;44.35
77639;BME280;66802;52.574;14.398;2023-03-01T13:33:53;102855.94;;;6.86;45.43
77639;BME280;66802;52.574;14.398;2023-03-01T13:46:57;102831.66;;;6.71;46.35
77639;BME280;66802;52.574;14.398;2023-03-01T13:49:33;102833.84;;;6.81;46.89
77639;BME280;66802;52.574;14.398;2023-03-01T13:52:02;102827.50;;;6.82;47.34
77639;BME280;66802;52.574;14.398;2023-03-01T13:54:33;102833.66;;;6.84;48.08
77639;BME280;66802;52.574;14.398;2023-03-01T13:57:00;102832.00;;;6.82;48.42
77639;BME280;66802;52.574;14.398;2023-03-01T13:59:27;102829.16;;;6.85;47.50
77639;BME280;66802;52.574;14.398;2023-03-01T14:01:57;102837.00;;;6.89;48.01
77639;BME280;66802;52.574;14.398;2023-03-01T14:04:29;102831.69;;;6.88;48.18
77639;BME280;66802;52.574;14.398;2023-03-01T14:07:12;102828.13;;;6.87;48.07
77639;BME280;66802;52.574;14.398;2023-03-01T14:09:44;102817.94;;;6.94;47.62
77639;BME280;66802;52.574;14.398;2023-03-01T14:14:50;102818.28;;;6.88;49.02
77639;BME280;66802;52.574;14.398;2023-03-01T14:20:28;102807.03;;;6.97;46.72
77639;BME280;66802;52.574;14.398;2023-03-01T14:22:59;102802.38;;;6.83;48.17
77639;BME280;66802;52.574;14.398;2023-03-01T14:25:33;102798.28;;;6.76;48.36
77639;BME280;66802;52.574;14.398;2023-03-01T14:30:49;102801.78;;;6.78;48.47
77639;BME280;66802;52.574;14.398;2023-03-01T14:33:35;102804.59;;;6.75;49.15
77639;BME280;66802;52.574;14.398;2023-03-01T14:36:12;102805.63;;;6.73;49.15
77639;BME280;66802;52.574;14.398;2023-03-01T14:43:35;102789.84;;;6.67;49.48
77639;BME280;66802;52.574;14.398;2023-03-01T14:46:02;102784.72;;;6.62;49.38
77639;BME280;66802;52.574;14.398;2023-03-01T14:48:30;102783.06;;;6.59;49.13
77639;BME280;66802;52.574;14.398;2023-03-01T14:50:56;102782.03;;;6.62;49.90
77639;BME280;66802;52.574;14.398;2023-03-01T14:53:28;102785.44;;;6.66;50.25
77639;BME280;66802;52.574;14.398;2023-03-01T14:55:59;102780.53;;;6.74;48.86
77639;BME280;66802;52.574;14.398;2023-03-01T14:58:28;102780.53;;;6.74;48.64
77639;BME280;66802;52.574;14.398;2023-03-01T15:00:58;102771.78;;;6.70;49.94
77639;BME280;66802;52.574;14.398;2023-03-01T15:03:38;102771.69;;;6.72;49.92
77639;BME280;66802;52.574;14.398;2023-03-01T15:06:07;102765.13;;;6.60;48.50
77639;BME280;66802;52.574;14.398;2023-03-01T15:08:35;102761.81;;;6.55;49.32
77639;BME280;66802;52.574;14.398;2023-03-01T15:13:35;102757.25;;;6.57;49.87
77639;BME280;66802;52.574;14.398;2023-03-01T15:16:11;102759.06;;;6.56;49.99
77639;BME280;66802;52.574;14.398;2023-03-01T15:18:44;102760.97;;;6.54;50.31
77639;BME280;66802;52.574;14.398;2023-03-01T15:26:51;102769.81;;;6.56;50.16
77639;BME280;66802;52.574;14.398;2023-03-01T15:29:24;102776.41;;;6.49;49.30
77639;BME280;66802;52.574;14.398;2023-03-01T15:32:23;102770.28;;;6.47;49.92
77639;BME280;66802;52.574;14.398;2023-03-01T15:34:50;102767.66;;;6.46;50.12
77639;BME280;66802;52.574;14.398;2023-03-01T15:42:50;102767.09;;;6.39;50.54
77639;BME280;66802;52.574;14.398;2023-03-01T15:47:48;102766.53;;;6.33;52.44
77639;BME280;66802;52.574;14.398;2023-03-01T15:50:25;102763.94;;;6.31;51.93
77639;BME280;66802;52.574;14.398;2023-03-01T15:52:53;102763.94;;;6.31;52.25
77639;BME280;66802;52.574;14.398;2023-03-01T15:55:27;102759.03;;;6.22;52.35
77639;BME280;66802;52.574;14.398;2023-03-01T15:58:00;102765.88;;;6.10;52.24
77639;BME280;66802;52.574;14.398;2023-03-01T16:00:28;102763.19;;;6.10;53.04
77639;BME280;66802;52.574;14.398;2023-03-01T16:02:55;102751.66;;;6.08;53.49
77639;BME280;66802;52.574;14.398;2023-03-01T16:05:31;102752.06;;;6.01;54.14
77639;BME280;66802;52.574;14.398;2023-03-01T16:07:57;102748.97;;;5.91;53.30
77639;BME280;66802;52.574;14.398;2023-03-01T16:10:23;102741.28;;;5.83;54.22
77639;BME280;66802;52.574;14.398;2023-03-01T16:12:49;102731.56;;;5.81;54.33
77639;BME280;66802;52.574;14.398;2023-03-01T16:15:20;102737.19;;;5.75;54.99
77639;BME280;66802;52.574;14.398;2023-03-01T16:17:46;102748.97;;;5.72;54.87
77639;BME280;66802;52.574;14.398;2023-03-01T16:20:12;102745.94;;;5.61;55.05
77639;BME280;66802;52.574;14.398;2023-03-01T16:22:44;102739.47;;;5.46;55.24
77639;BME280;66802;52.574;14.398;2023-03-01T16:25:11;102744.41;;;5.37;55.41
77639;BME280;66802;52.574;14.398;2023-03-01T16:27:38;102736.81;;;5.28;55.42
77639;BME280;66802;52.574;14.398;2023-03-01T16:30:07;102749.66;;;5.20;55.21
77639;BME280;66802;52.574;14.398;2023-03-01T16:32:38;102747.19;;;5.15;55.84
77639;BME280;66802;52.574;14.398;2023-03-01T16:35:05;102756.53;;;5.06;56.79
77639;BME280;66802;52.574;14.398;2023-03-01T16:37:33;102754.34;;;4.96;56.64
77639;BME280;66802;52.574;14.398;2023-03-01T16:39:59;102754.94;;;4.82;58.02
77639;BME280;66802;52.574;14.398;2023-03-01T16:42:25;102763.22;;;4.76;57.49
77639;BME280;66802;52.574;14.398;2023-03-01T16:44:55;102757.22;;;4.71;57.31
77639;BME280;66802;52.574;14.398;2023-03-01T16:47:21;102762.03;;;4.63;58.01
77639;BME280;66802;52.574;14.398;2023-03-01T16:49:47;102757.88;;;4.56;58.50
77639;BME280;66802;52.574;14.398;2023-03-01T16:52:12;102764.44;;;4.49;58.35
77639;BME280;66802;52.574;14.398;2023-03-01T16:54:38;102761.00;;;4.45;59.71
77639;BME280;66802;52.574;14.398;2023-03-01T16:57:04;102756.84;;;4.38;60.16
77639;BME280;66802;52.574;14.398;2023-03-01T16:59:30;102753.59;;;4.31;59.93
77639;BME280;66802;52.574;14.398;2023-03-01T17:01:55;102755.69;;;4.23;59.98
77639;BME280;66802;52.574;14.398;2023-03-01T17:04:21;102761.53;;;4.11;59.87
77639;BME280;66802;52.574;14.398;2023-03-01T17:06:47;102761.91;;;4.02;59.95
77639;BME280;66802;52.574;14.398;2023-03-01T17:09:14;102757.72;;;3.96;59.83
77639;BME280;66802;52.574;14.398;2023-03-01T17:11:39;102764.16;;;3.91;60.51
77639;BME280;66802;52.574;14.398;2023-03-01T17:14:05;102759.06;;;3.85;60.24
77639;BME280;66802;52.574;14.398;2023-03-01T17:16:30;102760.16;;;3.79;60.64
77639;BME280;66802;52.574;14.398;2023-03-01T17:18:56;102760.50;;;3.72;60.66
77639;BME280;66802;52.574;14.398;2023-03-01T17:21:22;102758.75;;;3.71;61.58
77639;BME280;66802;52.574;14.398;2023-03-01T17:23:47;102760.91;;;3.61;61.29
77639;BME280;66802;52.574;14.398;2023-03-01T17:26:15;102756.56;;;3.58;61.81
77639;BME280;66802;52.574;14.398;2023-03-01T17:28:41;102761.28;;;3.52;61.98
77639;BME280;66802;52.574;14.398;2023-03-01T17:31:08;102757.03;;;3.46;61.62
77639;BME280;66802;52.574;14.398;2023-03-01T17:33:35;102759.00;;;3.41;61.98
77639;BME280;66802;52.574;14.398;2023-03-01T17:36:01;102754.72;;;3.37;61.96
77639;BME280;66802;52.574;14.398;2023-03-01T17:38:27;102758.72;;;3.25;62.27
77639;BME280;66802;52.574;14.398;2023-03-01T17:40:52;102760.03;;;3.14;62.38
77639;BME280;66802;52.574;14.398;2023-03-01T17:43:18;102756.78;;;3.06;62.79
77639;BME280;66802;52.574;14.398;2023-03-01T17:45:44;102752.38;;;3.05;62.60
77639;BME280;66802;52.574;14.398;2023-03-01T17:48:14;102756.09;;;3.01;62.89
77639;BME280;66802;52.574;14.398;2023-03-01T17:50:40;102750.09;;;2.94;63.69
77639;BME280;66802;52.574;14.398;2023-03-01T17:53:07;102754.72;;;2.90;63.25
77639;BME280;66802;52.574;14.398;2023-03-01T17:55:39;102759.31;;;2.85;63.39
77639;BME280;66802;52.574;14.398;2023-03-01T17:58:06;102755.25;;;2.75;62.95
77639;BME280;66802;52.574;14.398;2023-03-01T18:00:33;102757.38;;;2.66;63.02
77639;BME280;66802;52.574;14.398;2023-03-01T18:02:59;102755.91;;;2.57;63.99
77639;BME280;66802;52.574;14.398;2023-03-01T18:05:25;102752.69;;;2.47;64.27
77639;BME280;66802;52.574;14.398;2023-03-01T18:07:52;102757.19;;;2.45;63.63
77639;BME280;66802;52.574;14.398;2023-03-01T18:10:18;102752.78;;;2.44;64.00
77639;BME280;66802;52.574;14.398;2023-03-01T18:12:44;102752.84;;;2.43;64.09
77639;BME280;66802;52.574;14.398;2023-03-01T18:15:11;102759.00;;;2.45;63.83
77639;BME280;66802;52.574;14.398;2023-03-01T18:17:37;102753.97;;;2.36;64.01
77639;BME280;66802;52.574;14.398;2023-03-01T18:20:04;102757.56;;;2.35;64.59
77639;BME280;66802;52.574;14.398;2023-03-01T18:22:31;102748.44;;;2.42;63.50
77639;BME280;66802;52.574;14.398;2023-03-01T18:24:56;102752.94;;;2.40;63.61
77639;BME280;66802;52.574;14.398;2023-03-01T18:27:22;102748.88;;;2.28;63.90
77639;BME280;66802;52.574;14.398;2023-03-01T18:29:48;102755.34;;;2.21;64.93
77639;BME280;66802;52.574;14.398;2023-03-01T18:32:14;102741.16;;;2.20;64.28
77639;BME280;66802;52.574;14.398;2023-03-01T18:34:39;102751.13;;;2.15;64.92
77639;BME280;66802;52.574;14.398;2023-03-01T18:37:05;102748.72;;;2.06;64.49
77639;BME280;66802;52.574;14.398;2023-03-01T18:39:31;102750.81;;;1.97;64.84
77639;BME280;66802;52.574;14.398;2023-03-01T18:41:57;102748.41;;;1.89;65.14
77639;BME280;66802;52.574;14.398;2023-03-01T18:44:22;102762.84;;;1.82;65.38
77639;BME280;66802;52.574;14.398;2023-03-01T18:46:48;102764.78;;;1.77;65.15
77639;BME280;66802;52.574;14.398;2023-03-01T18:49:14;102763.25;;;1.70;65.49
77639;BME280;66802;52.574;14.398;2023-03-01T18:51:41;102761.34;;;1.73;65.98
77639;BME280;66802;52.574;14.398;2023-03-01T18:54:11;102760.72;;;1.65;66.38
77639;BME280;66802;52.574;14.398;2023-03-01T18:56:37;102761.88;;;1.57;66.09
77639;BME280;66802;52.574;14.398;2023-03-01T18:59:02;102763.94;;;1.47;66.41
77639;BME280;66802;52.574;14.398;2023-03-01T19:01:30;102776.56;;;1.40;66.25
77639;BME280;66802;52.574;14.398;2023-03-01T19:03:57;102772.28;;;1.35;66.27
77639;BME280;66802;52.574;14.398;2023-03-01T19:06:28;102763.59;;;1.30;66.08
77639;BME280;66802;52.574;14.398;2023-03-01T19:08:55;102769.94;;;1.24;66.56
77639;BME280;66802;52.574;14.398;2023-03-01T19:11:21;102768.44;;;1.16;66.50
77639;BME280;66802;52.574;14.398;2023-03-01T19:13:47;102774.69;;;1.13;66.89
77639;BME280;66802;52.574;14.398;2023-03-01T19:16:22;102765.94;;;1.09;67.20